• Join FlightAware (Why Join?)
  • Login
  • US Flag 
01:32AM EST


 

Airport Tracker/Info


-or-


 

Live Flight TrackerFlight Track Log ✈ SWA4079 ✈ 15-Mar-2014 ✈ KHOU - KOKC

Flight Track Log - Related Links

Times and Time Zones

All times are in EDT time to prevent confusion due to time zone crossing. See the SWA4079 flight status page for this flight to view local times or setup timezone preferences in your user account.

Time Position Orientation Groundspeed Altitude Reporting Facility
EDT Latitude Longitude Course Direction KTS MPH feet Rate Location/Type
07:51PM 29.6333 -95.2653 49° Northeast 151 174 900  Level Houston Center
07:52PM 29.6669 -95.2203 49° Northeast 272 313 2,900 1,740 Climbing Houston Center
07:52PM 29.6825 -95.2197 North 261 300 3,500 2,040 Climbing Houston Center
07:53PM 29.7450 -95.2253 356° North 295 339 5,000 1,440 Climbing Houston Center
07:53PM 29.7636 -95.2253 360° North 282 325 5,000 1,980 Level Houston Center
07:54PM 29.8411 -95.2631 337° Northwest 305 351 7,800 3,240 Climbing Houston Center
07:55PM 29.9392 -95.2592 North 307 353 11,700 3,120 Climbing Houston Center
07:56PM 30.0181 -95.2814 346° North 313 360 14,300 2,460 Climbing Houston Center
07:57PM 30.0919 -95.3303 330° Northwest 307 353 16,900 1,620 Climbing Houston Center
07:58PM 30.1767 -95.3808 333° Northwest 341 392 17,700 1,620 Climbing Houston Center
07:59PM 30.2706 -95.4383 332° Northwest 378 435 20,300 2,100 Climbing Houston Center
08:00PM 30.3644 -95.4964 332° Northwest 379 436 22,100 1,860 Climbing Houston Center
08:01PM 30.4603 -95.5553 332° Northwest 388 447 24,200 1,740 Climbing Houston Center
08:02PM 30.5786 -95.6283 332° Northwest 402 463 25,700 1,440 Climbing Houston Center
08:03PM 30.6808 -95.6922 332° Northwest 412 474 27,200 1,380 Climbing Houston Center
08:04PM 30.7853 -95.7561 332° Northwest 419 482 28,600 1,560 Climbing Houston Center
08:06PM 30.8892 -95.8214 332° Northwest 420 483 30,400 1,680 Climbing Houston Center
08:07PM 30.9906 -95.8831 332° Northwest 417 480 32,100 1,380 Climbing Houston Center
08:08PM 31.0881 -95.9450 331° Northwest 405 466 33,300 960 Climbing Houston Center
08:09PM 31.1958 -95.9972 337° Northwest 414 476 34,100 840 Climbing Houston Center
08:10PM 31.3119 -96.0400 343° North 431 496 35,100 900 Climbing Houston Center
08:11PM 31.4478 -96.0939 341° North 432 497 36,000 420 Climbing Houston Center
08:12PM 31.5617 -96.1392 341° North 431 496 36,000  Level Houston Center
08:12PM 31.6383 -96.1667 343° North 431 496 36,000  Level Fort Worth Center
08:13PM 31.7531 -96.2117 342° North 431 496 36,000  Level Fort Worth Center
08:14PM 31.8669 -96.2578 341° North 432 497 36,000 -60 Level Fort Worth Center
08:15PM 32.0028 -96.3094 342° North 428 493 35,900  Descending Fort Worth Center
08:17PM 32.1147 -96.3556 341° North 428 493 36,000  Climbing Fort Worth Center
08:18PM 32.2272 -96.3986 342° North 428 493 36,000  Level Fort Worth Center
08:19PM 32.3431 -96.4422 342° North 429 494 36,000  Level Fort Worth Center
08:20PM 32.4419 -96.5089 330° Northwest 416 479 36,000  Level Fort Worth Center
08:21PM 32.5433 -96.5756 331° Northwest 416 479 36,000  Level Fort Worth Center
08:22PM 32.6444 -96.6425 331° Northwest 416 479 36,000  Level Fort Worth Center
08:23PM 32.7542 -96.6922 339° North 431 496 36,000  Level Fort Worth Center
08:24PM 32.8689 -96.7294 345° North 431 496 36,000 -60 Level Fort Worth Center
08:25PM 33.0050 -96.7747 344° North 430 495 35,900  Descending Fort Worth Center
08:26PM 33.1192 -96.8133 344° North 429 494 36,000  Climbing Fort Worth Center
08:27PM 33.2353 -96.8522 344° North 434 499 36,000  Level Fort Worth Center
08:28PM 33.3522 -96.8928 344° North 437 503 36,000  Level Fort Worth Center
08:29PM 33.4694 -96.9317 345° North 440 506 36,000 -60 Level Fort Worth Center
08:30PM 33.5869 -96.9719 344° North 441 507 35,900 -1,380 Descending Fort Worth Center
08:31PM 33.7056 -97.0128 344° North 442 509 33,300 -2,940 Descending Fort Worth Center
08:32PM 33.8500 -97.0633 344° North 450 518 29,900 -2,880 Descending Fort Worth Center
08:33PM 33.9694 -97.1036 344° North 449 517 27,500 -2,400 Descending Fort Worth Center
08:34PM 34.0856 -97.1458 343° North 439 505 25,100 -2,160 Descending Fort Worth Center
08:35PM 34.1892 -97.1764 346° North 434 499 23,100 -2,400 Descending Fort Worth Center
08:36PM 34.3250 -97.2244 344° North 427 491 20,300 -2,580 Descending Fort Worth Center
08:37PM 34.4333 -97.2653 343° North 412 474 17,900 -2,220 Descending Fort Worth Center
08:38PM 34.5375 -97.3011 344° North 390 449 15,800 -2,040 Descending Fort Worth Center
08:39PM 34.6347 -97.3339 344° North 367 422 13,800 -2,160 Descending Fort Worth Center
08:39PM 34.6872 -97.3511 345° North 340 391 12,600 -1,920 Descending Fort Worth Center
08:40PM 34.7244 -97.3656 342° North 338 389 11,900 -1,680 Descending Fort Worth Center
08:40PM 34.7728 -97.3797 346° North 314 361 10,900 -900 Descending Fort Worth Center
08:41PM 34.8075 -97.3942 341° North 314 361 11,000 60 Climbing Fort Worth Center
08:41PM 34.8522 -97.4094 344° North 293 337 11,000  Level Fort Worth Center
08:42PM 34.8886 -97.4156 352° North 303 349 11,000 -120 Level Fort Worth Center
08:43PM 34.9378 -97.4203 355° North 311 358 10,900  Descending Fort Worth Center
08:43PM 34.9736 -97.4264 352° North 305 351 11,000  Climbing Fort Worth Center
08:44PM 35.0211 -97.4314 355° North 303 349 10,900 -120 Descending Fort Worth Center
08:44PM 35.0567 -97.4369 353° North 302 348 10,900 -900 Level Fort Worth Center
08:45PM 35.1006 -97.4433 353° North 287 330 10,000 -1,620 Descending Fort Worth Center
08:45PM 35.1486 -97.4472 356° North 286 329 9,300 -1,500 Descending Fort Worth Center
08:46PM 35.1753 -97.4508 354° North 267 307 8,500 -1,860 Descending Fort Worth Center
08:46PM 35.2267 -97.4606 351° North 268 308 7,400 -1,920 Descending Fort Worth Center
08:47PM 35.2553 -97.4678 348° North 266 306 6,600 -1,620 Descending Fort Worth Center
08:47PM 35.3003 -97.4806 347° North 270 311 5,800 -1,320 Descending Fort Worth Center
08:48PM 35.3275 -97.4914 342° North 268 308 5,300 -1,020 Descending Fort Worth Center
08:48PM 35.3697 -97.5028 348° North 260 299 4,800 -840 Descending Fort Worth Center
08:49PM 35.3947 -97.5081 350° North 237 273 4,500 -900 Descending Fort Worth Center
08:49PM 35.4361 -97.5142 353° North 225 259 3,900 -1,020 Descending Fort Worth Center
08:50PM 35.4550 -97.5181 350° North 211 243 3,500 -780 Descending Fort Worth Center
08:50PM 35.4675 -97.5531 294° West 211 243 3,100 -840 Descending Fort Worth Center
08:51PM 35.4639 -97.5783 260° West 187 215 2,700 -1,140 Descending Fort Worth Center
08:51PM 35.4389 -97.5894 200° South 148 170 2,000 -840 Descending Fort Worth Center
08:52PM 35.4275 -97.5897 181° South 118 136 1,900 -720 Descending Fort Worth Center
08:52PM 35.4022 -97.5897 180° South 132 152 1,300 -840 Descending Fort Worth Center